createdAt,value
2022-08-23T00:01:24.695Z,1.00
2022-08-23T00:03:54.202Z,1.00
2022-08-23T00:06:23.376Z,1.00
2022-08-23T00:08:52.715Z,1.00
2022-08-23T00:11:29.865Z,1.00
2022-08-23T00:13:59.838Z,1.00
2022-08-23T00:16:29.767Z,1.00
2022-08-23T00:18:57.987Z,1.00
2022-08-23T00:21:26.001Z,1.00
2022-08-23T00:23:54.007Z,1.00
2022-08-23T00:26:22.139Z,1.00
2022-08-23T00:28:50.338Z,4.70
2022-08-23T00:31:18.425Z,1.00
2022-08-23T00:33:47.682Z,1.00
2022-08-23T00:36:15.599Z,57.60
2022-08-23T00:38:43.491Z,1.00
2022-08-23T00:41:11.426Z,1.00
2022-08-23T00:44:00.346Z,1.00
2022-08-23T00:47:00.515Z,1.00
2022-08-23T00:49:30.931Z,1.00
2022-08-23T00:52:07.516Z,26.50
2022-08-23T00:54:38.874Z,47.10
2022-08-23T00:57:09.555Z,35.40
2022-08-23T00:59:37.958Z,4.20
2022-08-23T01:02:06.941Z,1.00
2022-08-23T01:04:44.458Z,1.00
2022-08-23T01:07:18.690Z,8.10
2022-08-23T01:09:48.642Z,1.00
2022-08-23T01:12:32.820Z,1.00
2022-08-23T01:15:06.905Z,1.00
2022-08-23T01:17:39.842Z,1.00
2022-08-23T01:20:13.799Z,1.00
2022-08-23T01:22:47.565Z,1.00
2022-08-23T01:25:21.606Z,28.90
2022-08-23T01:27:51.130Z,14.80
2022-08-23T01:30:22.611Z,1.00
2022-08-23T01:32:53.487Z,42.80
2022-08-23T01:37:58.041Z,1.00
2022-08-23T01:40:27.567Z,4.60
2022-08-23T01:42:55.782Z,1.00
2022-08-23T01:45:23.761Z,1.00
2022-08-23T01:47:51.691Z,1.00
2022-08-23T01:50:19.807Z,1.00
2022-08-23T01:52:47.790Z,1.00
2022-08-23T01:55:16.225Z,1.00
2022-08-23T01:57:48.413Z,1.00
2022-08-23T02:00:18.743Z,1.00
2022-08-23T02:02:46.971Z,1.00
2022-08-23T02:05:18.803Z,1.00
2022-08-23T02:07:47.470Z,6.70
2022-08-23T02:10:16.159Z,26.00
2022-08-23T02:12:46.663Z,1.00
2022-08-23T02:15:16.055Z,1.00
2022-08-23T02:17:46.330Z,1.00
2022-08-23T02:20:14.841Z,1.00
2022-08-23T02:22:43.126Z,1.00
2022-08-23T02:25:11.408Z,1.00
2022-08-23T02:27:43.995Z,1.00
2022-08-23T02:30:14.719Z,1.00
2022-08-23T02:32:42.744Z,1.00
2022-08-23T02:35:11.837Z,1.00
2022-08-23T02:37:39.742Z,20.70
2022-08-23T02:40:09.505Z,7.60
2022-08-23T02:42:37.469Z,1.00
2022-08-23T02:45:08.350Z,1.00
2022-08-23T02:47:37.911Z,1.00
2022-08-23T02:50:06.482Z,16.50
2022-08-23T02:52:34.441Z,1.00
2022-08-23T02:55:02.388Z,1.00
2022-08-23T02:57:31.525Z,1.00
2022-08-23T02:59:59.593Z,1.00
2022-08-23T03:02:27.575Z,63.20
2022-08-23T03:04:56.999Z,36.20
2022-08-23T03:07:25.000Z,1.00
2022-08-23T03:09:53.071Z,1.00
2022-08-23T03:12:21.129Z,91.00
2022-08-23T03:14:51.158Z,49.00
2022-08-23T03:17:21.137Z,27.10
2022-08-23T03:19:49.256Z,1.00
2022-08-23T03:22:18.529Z,1.00
2022-08-23T03:24:46.714Z,1.00
2022-08-23T03:27:14.639Z,7.20
2022-08-23T03:29:42.699Z,1.00
2022-08-23T03:32:10.618Z,1.00
2022-08-23T03:34:38.515Z,1.00
2022-08-23T03:37:06.413Z,1.00
2022-08-23T03:39:35.738Z,47.90
2022-08-23T03:42:04.111Z,85.00
2022-08-23T03:44:32.025Z,34.50
2022-08-23T03:47:00.100Z,18.30
2022-08-23T03:49:28.177Z,8.10
2022-08-23T03:51:56.107Z,49.20
2022-08-23T03:54:24.135Z,61.40
2022-08-23T03:56:56.078Z,36.20
2022-08-23T03:59:24.031Z,59.70
2022-08-23T04:01:51.974Z,56.20
2022-08-23T04:04:19.948Z,88.70
2022-08-23T04:06:47.953Z,90.90
2022-08-23T04:09:16.520Z,99.90
2022-08-23T04:11:45.167Z,99.90
2022-08-23T04:14:14.538Z,99.90
2022-08-23T04:16:43.137Z,99.90
2022-08-23T04:19:14.101Z,90.70
2022-08-23T04:21:45.341Z,99.90
2022-08-23T04:24:13.952Z,99.90
2022-08-23T04:26:41.936Z,99.90
2022-08-23T04:29:23.018Z,99.90
2022-08-23T04:32:05.644Z,99.90
2022-08-23T04:34:36.314Z,99.90
2022-08-23T04:37:04.390Z,99.90
2022-08-23T04:39:58.659Z,99.90
2022-08-23T04:42:26.057Z,99.90
2022-08-23T04:44:54.146Z,99.90
2022-08-23T04:47:23.699Z,99.90
2022-08-23T04:49:51.594Z,99.90
2022-08-23T04:52:19.855Z,99.90
2022-08-23T04:54:47.890Z,99.90
2022-08-23T04:57:16.448Z,99.90
2022-08-23T04:59:44.402Z,99.90
2022-08-23T05:02:12.551Z,99.90
2022-08-23T05:04:42.360Z,99.90
2022-08-23T05:07:10.815Z,99.90
2022-08-23T05:09:38.799Z,99.90
2022-08-23T05:12:07.058Z,99.90
2022-08-23T05:14:34.994Z,99.90
2022-08-23T05:17:03.434Z,99.90
2022-08-23T05:19:32.502Z,99.90
2022-08-23T05:22:01.781Z,99.90
2022-08-23T05:24:29.694Z,99.90
2022-08-23T05:26:57.614Z,99.90
2022-08-23T05:29:25.913Z,99.90
2022-08-23T05:31:57.076Z,99.90
2022-08-23T05:34:25.574Z,99.90
2022-08-23T05:36:55.844Z,99.90
2022-08-23T05:39:36.111Z,99.90
2022-08-23T05:42:04.917Z,99.90
2022-08-23T05:44:36.714Z,99.90
2022-08-23T05:47:10.188Z,99.90
2022-08-23T05:49:39.398Z,99.90
2022-08-23T05:52:09.310Z,99.90
2022-08-23T05:54:39.048Z,99.90
2022-08-23T05:57:07.539Z,99.90
2022-08-23T05:59:35.827Z,99.90
2022-08-23T06:02:03.722Z,99.90
2022-08-23T06:04:31.875Z,99.90
2022-08-23T06:06:59.833Z,99.90
2022-08-23T06:09:28.057Z,99.90
2022-08-23T06:11:58.712Z,99.90
2022-08-23T06:14:26.922Z,99.90
2022-08-23T06:16:56.263Z,99.90
2022-08-23T06:19:25.217Z,99.90
2022-08-23T06:21:53.819Z,99.90
2022-08-23T06:24:21.899Z,99.90
2022-08-23T06:26:49.830Z,99.90
2022-08-23T06:29:21.150Z,99.90
2022-08-23T06:31:51.493Z,99.90
2022-08-23T06:34:21.832Z,99.90
2022-08-23T06:36:52.404Z,99.90
2022-08-23T06:39:22.621Z,99.90
2022-08-23T06:41:50.987Z,99.90
2022-08-23T06:44:21.427Z,99.90
2022-08-23T06:46:49.461Z,99.90
2022-08-23T06:49:17.921Z,99.90
2022-08-23T06:51:49.117Z,99.90
2022-08-23T06:54:20.311Z,99.90
2022-08-23T06:56:49.386Z,99.90
2022-08-23T06:59:18.731Z,99.90
2022-08-23T07:01:52.101Z,99.90
2022-08-23T07:04:22.794Z,99.90
2022-08-23T07:06:51.074Z,99.90
2022-08-23T07:09:19.652Z,99.90
2022-08-23T07:11:47.867Z,99.90
2022-08-23T07:14:20.267Z,42.80
2022-08-23T07:16:51.383Z,30.40
2022-08-23T07:19:21.250Z,10.30
2022-08-23T07:21:50.198Z,1.00
2022-08-23T07:24:19.002Z,1.00
2022-08-23T07:26:48.476Z,1.00
2022-08-23T07:29:17.474Z,1.00
2022-08-23T07:31:50.487Z,50.70
2022-08-23T07:34:18.729Z,1.00
2022-08-23T07:36:48.203Z,1.00
2022-08-23T07:39:17.535Z,1.00
2022-08-23T07:41:46.836Z,1.00
2022-08-23T07:44:17.420Z,1.00
2022-08-23T07:46:47.254Z,1.00
2022-08-23T07:49:16.821Z,1.00
2022-08-23T07:51:48.936Z,1.00
2022-08-23T07:54:18.153Z,1.00
2022-08-23T07:56:46.402Z,1.00
2022-08-23T07:59:14.379Z,1.00
2022-08-23T08:01:44.960Z,1.00
2022-08-23T08:04:12.946Z,1.00
2022-08-23T08:06:46.106Z,1.00
2022-08-23T08:09:15.357Z,1.00
2022-08-23T08:11:45.395Z,1.00
2022-08-23T08:14:14.006Z,1.00
2022-08-23T08:16:44.361Z,1.00
2022-08-23T08:19:15.084Z,1.00
2022-08-23T08:21:47.078Z,1.00
2022-08-23T08:24:16.882Z,1.00
2022-08-23T08:26:46.091Z,1.00
2022-08-23T08:29:14.775Z,1.00
2022-08-23T08:31:45.382Z,1.00
2022-08-23T08:34:14.165Z,1.00
2022-08-23T08:36:46.170Z,1.00
2022-08-23T08:39:15.124Z,1.00
2022-08-23T08:42:04.681Z,1.00
2022-08-23T08:44:39.435Z,1.00
2022-08-23T08:47:11.271Z,1.00
2022-08-23T08:49:45.205Z,1.00
2022-08-23T08:52:19.620Z,1.00
2022-08-23T08:54:50.218Z,1.00
2022-08-23T08:57:27.607Z,1.00
2022-08-23T09:00:01.045Z,1.00
2022-08-23T09:02:33.678Z,1.00
2022-08-23T09:05:04.775Z,1.00
2022-08-23T09:07:44.191Z,1.00
2022-08-23T09:10:29.268Z,1.00
2022-08-23T09:13:05.332Z,1.00
2022-08-23T09:15:40.679Z,99.90
2022-08-23T09:18:11.014Z,99.90
2022-08-23T09:20:39.707Z,1.00
2022-08-23T09:23:12.085Z,1.00
2022-08-23T09:25:40.295Z,1.00
2022-08-23T09:28:08.336Z,1.00
2022-08-23T09:30:49.505Z,99.90
2022-08-23T09:33:19.079Z,1.00
2022-08-23T09:36:08.562Z,1.00
2022-08-23T09:38:40.592Z,99.90
2022-08-23T09:41:20.384Z,1.00
2022-08-23T09:43:50.238Z,1.00
2022-08-23T09:46:26.713Z,1.00
2022-08-23T09:48:58.244Z,1.00
2022-08-23T09:51:30.599Z,99.90
2022-08-23T09:54:11.370Z,99.90
2022-08-23T09:56:45.041Z,1.00
2022-08-23T09:59:28.825Z,99.90
2022-08-23T10:01:59.714Z,1.00
2022-08-23T10:04:42.527Z,1.00
2022-08-23T10:07:28.963Z,1.00
2022-08-23T10:10:20.186Z,1.00
2022-08-23T10:12:48.461Z,99.90
2022-08-23T10:15:18.213Z,99.90
2022-08-23T10:17:55.544Z,1.00
2022-08-23T10:20:32.624Z,1.00
2022-08-23T10:23:12.623Z,1.00
2022-08-23T10:25:46.343Z,99.90
2022-08-23T10:28:40.221Z,1.00
2022-08-23T10:31:15.731Z,99.90
2022-08-23T10:33:51.586Z,99.90
2022-08-23T10:36:25.525Z,1.00
2022-08-23T10:38:57.866Z,1.00
2022-08-23T10:41:48.250Z,99.90
2022-08-23T10:44:26.533Z,99.90
2022-08-23T10:47:05.798Z,99.90
2022-08-23T10:49:37.106Z,1.00
2022-08-23T10:52:08.855Z,99.90
2022-08-23T10:54:47.149Z,1.00
2022-08-23T10:57:20.729Z,1.00
2022-08-23T10:59:51.744Z,1.00
2022-08-23T11:02:28.060Z,99.90
2022-08-23T11:05:02.647Z,1.00
2022-08-23T11:07:34.203Z,99.90
2022-08-23T11:10:17.287Z,1.00
2022-08-23T11:12:58.360Z,22.10
2022-08-23T11:15:44.601Z,80.70
2022-08-23T11:18:39.121Z,1.00
2022-08-23T11:21:10.982Z,99.90
2022-08-23T11:24:19.024Z,1.00
2022-08-23T11:27:07.966Z,1.00
2022-08-23T11:29:41.366Z,1.00
2022-08-23T11:32:34.370Z,99.90
2022-08-23T11:35:30.533Z,1.00
2022-08-23T11:38:04.883Z,1.00
2022-08-23T11:40:58.794Z,99.90
2022-08-23T11:43:36.206Z,1.00
2022-08-23T11:46:32.851Z,99.90
2022-08-23T11:49:22.515Z,1.00
2022-08-23T11:52:01.655Z,99.90
2022-08-23T11:54:48.274Z,99.90
2022-08-23T11:57:24.619Z,99.90
2022-08-23T12:00:10.857Z,1.00
2022-08-23T12:03:02.276Z,99.90
2022-08-23T12:05:56.974Z,99.90
2022-08-23T12:08:34.666Z,99.90
2022-08-23T12:11:07.005Z,99.90
2022-08-23T12:13:49.706Z,99.90
2022-08-23T12:16:50.103Z,99.90
2022-08-23T12:19:35.814Z,99.90
2022-08-23T12:22:11.646Z,99.90
2022-08-23T12:24:46.798Z,99.90
2022-08-23T12:27:31.668Z,99.90
2022-08-23T12:30:08.733Z,99.90
2022-08-23T12:32:45.257Z,1.00
2022-08-23T12:35:31.899Z,1.00
2022-08-23T12:38:07.285Z,1.00
2022-08-23T12:40:42.104Z,3.90
2022-08-23T12:43:20.847Z,97.00
2022-08-23T12:45:53.289Z,99.90
2022-08-23T12:48:24.362Z,50.80
2022-08-23T12:50:58.296Z,99.90
2022-08-23T12:53:33.071Z,1.00
2022-08-23T12:56:03.701Z,99.90
2022-08-23T12:58:34.829Z,1.00
2022-08-23T13:01:06.082Z,1.00
2022-08-23T13:03:38.862Z,1.00
2022-08-23T13:06:11.186Z,99.90
2022-08-23T13:08:43.818Z,1.00
2022-08-23T13:11:12.734Z,99.90
2022-08-23T13:13:42.770Z,99.90
2022-08-23T13:16:30.534Z,99.90
2022-08-23T13:19:16.855Z,99.90
2022-08-23T13:21:46.644Z,99.90
2022-08-23T13:24:38.586Z,99.90
2022-08-23T13:27:20.954Z,99.90
2022-08-23T13:29:56.662Z,99.90
2022-08-23T13:32:36.433Z,99.90
2022-08-23T13:35:31.212Z,92.70
2022-08-23T13:38:09.650Z,99.70
2022-08-23T13:40:42.524Z,62.90
2022-08-23T13:43:13.734Z,99.90
2022-08-23T13:45:48.474Z,62.80
2022-08-23T13:48:21.133Z,80.60
2022-08-23T13:50:50.351Z,79.80
2022-08-23T13:53:20.682Z,70.70
2022-08-23T13:55:51.927Z,79.30
2022-08-23T13:58:28.988Z,48.70
2022-08-23T14:00:59.024Z,53.50
2022-08-23T14:03:28.125Z,45.30
2022-08-23T14:05:56.411Z,43.90
2022-08-23T14:08:25.913Z,36.70
2022-08-23T14:10:53.921Z,38.50
2022-08-23T14:13:28.507Z,42.00
2022-08-23T14:21:36.708Z,34.10
2022-08-23T14:24:06.627Z,28.60
2022-08-23T14:26:34.726Z,27.10
2022-08-23T14:29:02.789Z,22.90
2022-08-23T14:31:31.076Z,20.50
2022-08-23T14:34:02.011Z,24.30
2022-08-23T14:36:30.458Z,28.10
2022-08-23T14:38:58.391Z,37.10
2022-08-23T14:41:29.613Z,44.60
2022-08-23T14:43:57.602Z,53.70
2022-08-23T14:46:25.691Z,42.90
2022-08-23T14:48:53.660Z,32.10
2022-08-23T14:51:26.716Z,51.60
2022-08-23T14:53:54.886Z,38.70
2022-08-23T14:56:23.526Z,32.80
2022-08-23T14:58:53.551Z,51.80
2022-08-23T15:01:21.988Z,38.10
2022-08-23T15:03:50.798Z,41.10
2022-08-23T15:06:20.680Z,29.90
2022-08-23T15:08:49.297Z,24.70
2022-08-23T15:14:06.542Z,34.00
2022-08-23T15:16:35.155Z,27.00
2022-08-23T15:19:03.229Z,27.80
2022-08-23T15:21:31.237Z,33.80
2022-08-23T15:23:59.166Z,27.60
2022-08-23T15:26:29.651Z,24.90
2022-08-23T15:28:57.753Z,29.90
2022-08-23T15:31:27.366Z,17.20
2022-08-23T15:33:55.506Z,16.30
2022-08-23T15:36:23.809Z,16.90
2022-08-23T15:38:52.225Z,10.80
2022-08-23T15:41:21.616Z,12.80
2022-08-23T15:43:49.698Z,13.30
2022-08-23T15:46:21.549Z,13.30
2022-08-23T15:48:57.002Z,12.60
2022-08-23T15:51:25.767Z,6.90
2022-08-23T15:53:54.130Z,12.10
2022-08-23T15:56:29.801Z,9.80
2022-08-23T15:58:58.327Z,8.50
2022-08-23T16:01:28.854Z,12.10
2022-08-23T16:03:58.387Z,9.80
2022-08-23T16:06:26.863Z,7.60
2022-08-23T16:08:54.873Z,1.20
2022-08-23T16:11:24.122Z,22.00
2022-08-23T16:13:53.714Z,4.00
2022-08-23T16:16:27.261Z,8.30
2022-08-23T16:18:56.954Z,1.00
2022-08-23T16:21:28.558Z,1.00
2022-08-23T16:23:57.505Z,1.00
2022-08-23T16:26:34.792Z,1.00
2022-08-23T16:29:05.549Z,1.00
2022-08-23T16:31:38.817Z,1.00
2022-08-23T16:34:09.999Z,1.00
2022-08-23T16:36:40.120Z,1.00
2022-08-23T16:39:08.675Z,1.00
2022-08-23T16:41:36.673Z,1.30
2022-08-23T16:44:05.396Z,1.00
2022-08-23T16:46:33.575Z,1.00
2022-08-23T16:49:02.369Z,1.00
2022-08-23T16:51:30.385Z,1.00
2022-08-23T16:54:02.665Z,1.00
2022-08-23T16:56:31.921Z,1.90
2022-08-23T16:59:00.124Z,1.00
2022-08-23T17:01:29.582Z,1.00
2022-08-23T17:03:57.574Z,3.30
2022-08-23T17:06:25.555Z,2.40
2022-08-23T17:08:53.446Z,10.90
2022-08-23T17:11:23.040Z,19.50
2022-08-23T17:13:53.287Z,54.10
2022-08-23T17:16:22.516Z,46.00
2022-08-23T17:18:50.782Z,52.70
2022-08-23T17:21:22.145Z,49.90
2022-08-23T17:23:50.064Z,89.30
2022-08-23T17:26:18.509Z,99.90
2022-08-23T17:28:48.210Z,99.90
2022-08-23T17:31:17.609Z,99.90
2022-08-23T17:33:46.332Z,99.90
2022-08-23T17:36:24.719Z,99.90
2022-08-23T17:38:52.623Z,99.90
2022-08-23T17:41:20.551Z,99.90
2022-08-23T17:43:49.788Z,99.90
2022-08-23T17:46:17.908Z,1.00
2022-08-23T17:48:45.901Z,99.90
2022-08-23T17:51:13.917Z,99.90
2022-08-23T17:53:41.837Z,1.00
2022-08-23T17:56:11.674Z,1.00
2022-08-23T17:58:40.463Z,1.00
2022-08-23T18:01:11.008Z,1.00
2022-08-23T18:03:39.015Z,1.00
2022-08-23T18:06:16.218Z,99.90
2022-08-23T18:08:46.058Z,99.90
2022-08-23T18:11:14.318Z,99.90
2022-08-23T18:13:42.353Z,1.00
2022-08-23T18:16:14.225Z,1.00
2022-08-23T18:18:42.564Z,1.00
2022-08-23T18:21:12.010Z,37.00
2022-08-23T18:23:40.320Z,99.90
2022-08-23T18:26:30.419Z,1.00
2022-08-23T18:28:57.941Z,1.00
2022-08-23T18:31:27.537Z,1.00
2022-08-23T18:34:00.325Z,1.00
2022-08-23T18:36:30.153Z,1.00
2022-08-23T18:38:58.762Z,1.00
2022-08-23T18:41:26.712Z,1.00
2022-08-23T18:43:54.843Z,1.00
2022-08-23T18:46:23.295Z,99.90
2022-08-23T18:48:53.675Z,1.00
2022-08-23T18:51:23.721Z,1.00
2022-08-23T18:53:51.811Z,99.90
2022-08-23T18:56:19.833Z,13.30
2022-08-23T18:58:49.062Z,1.00
2022-08-23T19:01:25.420Z,1.00
2022-08-23T19:03:55.990Z,1.00
2022-08-23T19:06:24.275Z,99.90
2022-08-23T19:08:53.000Z,17.20
2022-08-23T19:11:22.207Z,99.90
2022-08-23T19:13:51.092Z,28.30
2022-08-23T19:16:20.240Z,99.90
2022-08-23T19:18:51.536Z,99.90
2022-08-23T19:21:23.142Z,99.90
2022-08-23T19:23:53.027Z,99.90
2022-08-23T19:26:25.686Z,1.00
2022-08-23T19:28:53.731Z,1.00
2022-08-23T19:31:21.680Z,1.00
2022-08-23T19:33:50.949Z,1.00
2022-08-23T19:36:44.813Z,1.00
2022-08-23T19:39:08.877Z,99.90
2022-08-23T19:41:37.043Z,1.00
2022-08-23T19:44:05.524Z,99.90
2022-08-23T19:46:33.473Z,1.00
2022-08-23T19:49:01.781Z,99.90
2022-08-23T19:51:37.069Z,99.90
2022-08-23T19:54:11.649Z,1.00
2022-08-23T19:56:42.459Z,1.00
2022-08-23T19:59:13.732Z,1.00
2022-08-23T20:01:42.033Z,1.00
2022-08-23T20:04:10.971Z,1.00
2022-08-23T20:06:40.773Z,1.00
2022-08-23T20:09:09.361Z,1.00
2022-08-23T20:11:37.363Z,1.00
2022-08-23T20:14:07.659Z,1.00
2022-08-23T20:16:36.307Z,1.00
2022-08-23T20:19:06.846Z,1.00
2022-08-23T20:21:34.916Z,1.00
2022-08-23T20:24:04.367Z,1.00
2022-08-23T20:26:35.414Z,1.00
2022-08-23T20:29:05.222Z,1.00
2022-08-23T20:31:36.389Z,1.00
2022-08-23T20:34:06.167Z,1.00
2022-08-23T20:36:34.186Z,1.00
2022-08-23T20:39:04.531Z,1.00
2022-08-23T20:41:34.560Z,1.00
2022-08-23T20:44:03.432Z,1.00
2022-08-23T20:46:31.496Z,1.00
2022-08-23T20:48:59.761Z,1.00
2022-08-23T20:51:28.520Z,1.10
2022-08-23T20:53:57.250Z,1.00
2022-08-23T20:56:28.665Z,17.20
2022-08-23T20:58:56.669Z,14.00
2022-08-23T21:01:24.954Z,26.10
2022-08-23T21:03:53.109Z,18.30
2022-08-23T21:06:23.463Z,27.00
2022-08-23T21:08:54.996Z,39.60
2022-08-23T21:11:26.011Z,30.90
2022-08-23T21:13:56.853Z,35.10
2022-08-23T21:16:25.622Z,82.50
2022-08-23T21:18:56.665Z,89.50
2022-08-23T21:21:25.287Z,65.30
2022-08-23T21:23:53.641Z,95.80
2022-08-23T21:26:23.351Z,96.50
2022-08-23T21:28:51.386Z,99.90
2022-08-23T21:31:22.532Z,99.90
2022-08-23T21:33:51.232Z,99.90
2022-08-23T21:36:20.560Z,99.90
2022-08-23T21:38:48.710Z,99.90
2022-08-23T21:41:32.131Z,99.90
2022-08-23T21:44:00.266Z,99.90
2022-08-23T21:46:29.637Z,99.90
2022-08-23T21:48:57.605Z,99.90
2022-08-23T21:51:25.542Z,99.90
2022-08-23T21:53:53.553Z,99.90
2022-08-23T21:56:21.544Z,99.90
2022-08-23T21:58:50.526Z,99.90
2022-08-23T22:01:19.656Z,99.90
2022-08-23T22:03:50.021Z,99.90
2022-08-23T22:06:20.812Z,99.90
2022-08-23T22:08:49.376Z,99.90
2022-08-23T22:11:17.569Z,99.90
2022-08-23T22:13:45.570Z,99.90
2022-08-23T22:16:13.608Z,99.90
2022-08-23T22:18:42.765Z,99.90
2022-08-23T22:21:12.889Z,99.90
2022-08-23T22:23:43.320Z,99.90
2022-08-23T22:26:13.703Z,99.90
2022-08-23T22:28:44.677Z,99.90
2022-08-23T22:31:14.334Z,99.90
2022-08-23T22:33:43.135Z,99.90
2022-08-23T22:36:16.545Z,99.90
2022-08-23T22:38:44.609Z,99.90
2022-08-23T22:41:16.287Z,99.90
2022-08-23T22:43:44.195Z,99.90
2022-08-23T22:46:12.948Z,99.90
2022-08-23T22:48:41.355Z,99.90
2022-08-23T22:51:13.070Z,99.90
2022-08-23T22:53:45.330Z,99.90
2022-08-23T22:56:13.960Z,99.90
2022-08-23T22:58:41.910Z,99.90
2022-08-23T23:01:12.939Z,99.90
2022-08-23T23:03:41.892Z,99.90
2022-08-23T23:06:10.519Z,99.90
2022-08-23T23:08:38.486Z,99.90
2022-08-23T23:11:10.063Z,99.90
2022-08-23T23:13:38.594Z,99.90
2022-08-23T23:16:08.502Z,99.90
2022-08-23T23:18:37.160Z,99.90
2022-08-23T23:21:05.153Z,99.90
2022-08-23T23:23:34.648Z,99.90
2022-08-23T23:26:03.658Z,99.90
2022-08-23T23:28:32.973Z,99.90
2022-08-23T23:31:00.886Z,99.90
2022-08-23T23:33:28.836Z,99.90
2022-08-23T23:35:56.967Z,99.90
2022-08-23T23:38:24.954Z,99.90
2022-08-23T23:40:52.991Z,99.90
2022-08-23T23:43:20.874Z,99.90
2022-08-23T23:45:50.262Z,99.90
2022-08-23T23:48:18.206Z,99.90
2022-08-23T23:50:46.734Z,99.90
2022-08-23T23:53:15.720Z,99.90
2022-08-23T23:55:44.357Z,99.90
2022-08-23T23:58:12.592Z,99.90
